Weather at Gabès Matmata International Airport

Public forecast

Using degrees Celsius for public forecast. Weather courtesy of forecast.io.

Current aviation weather report (METAR) for Gabès Matmata International Airport

Retrieved 2020/10/22 16:00 UTC (48 minutes ago):

DTTG 221600Z 07015KT CAVOK 25/16 Q1019 NOSIG

Aviation forecast (TAF) for Gabès Matmata International Airport

Forecast is more than 12 hours old.

Retrieved 2020/09/02 19:17 UTC (2 months ago):

TAF DTTG 021800Z 0219/0310 08015KT 9999 FEW020 PROB40 TEMPO 0304/0310 TS SHRA SCT026CB